Pilot Station, Alaska
Current Conditions -  °F | °C
As of 11:36 PM on Saturday 22 Nov 2014 (Local Time) from PASM Reporting Station
Clear Clear  
Wind Chill: -22°   Ceiling: Unl
Heat Index: -14°   Visibility: 10mi
Dew Point: -19°   Wind: 9mph
Humidity: 67%   Direction: 40°NE
Pressure: 29.29"   Gusts: NA
Location:  61.94°N, 162.88°W
Report Text: PASM 230836Z AUTO 04008KT 10SM CLR M14/M19 A2929 RMK AO1
Loading
Personal Weather Stations






























Interactive Weather Map New forecast layout! Learn more

10-Day Weather Forecast

Advertisements
Track Severe Weather on mobile